Decoded Metar for OIKK (KERMAN in IRAN) (IATA:KER) | Meteo·Mobile Aviation Weather
aviador You're here:

OIKK Decoded Metar

KERMAN in IRAN
Report Time2018-11-19 02:50:00
UTC Time2018-11-19 03:32:21
Flight Rules vfr VFR
WindCalm
Visibility9999 m
Phenomena:N/A
Clouds:N/A
Expected CloudBase > 1,600 ft AGL from Temp-Dew spread
CeilingNone
Temp01°C (ISA -3)
Dew Point-3°C (75% RH)
AAT-1.4°C
QNH1024 hPa
Density Alt5,157 ft
Elevation5,755 ft
Report Wrong Elevation
Raw Report
METAR OIKK 190250Z 00000KT CAVOK 01/M03 Q1024 A3025=

Extra information for OIKK:More info

Metar Taf Metar & Taf Last 4 Metars F.Rules Stats Wind Profile Meteogram Temp Stats Airport Information Weather charts Add Link Nearby VenuesMetar ALERT Operation Metar Decoded Social comments